createdAt,value
2022-07-28T00:00:12.428Z,3.77
2022-07-28T00:02:39.352Z,3.50
2022-07-28T00:05:07.426Z,3.40
2022-07-28T00:07:35.292Z,3.07
2022-07-28T00:10:02.849Z,3.70
2022-07-28T00:12:29.756Z,3.07
2022-07-28T00:14:57.088Z,3.80
2022-07-28T00:17:24.019Z,3.63
2022-07-28T00:19:51.192Z,3.80
2022-07-28T00:22:18.915Z,4.63
2022-07-28T00:24:46.094Z,3.90
2022-07-28T00:27:19.206Z,4.10
2022-07-28T00:29:50.597Z,3.30
2022-07-28T00:32:20.355Z,3.70
2022-07-28T00:34:47.472Z,4.10
2022-07-28T00:37:15.069Z,3.77
2022-07-28T00:39:43.947Z,3.77
2022-07-28T00:42:12.162Z,4.27
2022-07-28T00:44:41.612Z,3.47
2022-07-28T00:47:08.638Z,4.00
2022-07-28T00:49:35.757Z,3.47
2022-07-28T00:52:06.156Z,4.07
2022-07-28T00:54:33.945Z,4.40
2022-07-28T00:57:00.937Z,3.53
2022-07-28T00:59:27.897Z,3.57
2022-07-28T01:01:56.335Z,3.80
2022-07-28T01:04:25.280Z,4.10
2022-07-28T01:07:23.577Z,3.90
2022-07-28T01:10:27.678Z,3.60
2022-07-28T01:13:35.827Z,4.30
2022-07-28T01:16:06.346Z,3.80
2022-07-28T01:19:19.866Z,4.17
2022-07-28T01:21:49.700Z,3.70
2022-07-28T01:24:40.610Z,3.90
2022-07-28T01:27:45.595Z,4.10
2022-07-28T01:30:42.117Z,3.13
2022-07-28T01:33:20.202Z,4.20
2022-07-28T01:35:58.828Z,3.97
2022-07-28T01:38:31.806Z,4.17
2022-07-28T01:41:02.131Z,4.00
2022-07-28T01:43:36.771Z,3.63
2022-07-28T01:46:06.461Z,3.97
2022-07-28T01:48:36.548Z,4.37
2022-07-28T01:51:08.991Z,3.60
2022-07-28T01:53:39.871Z,3.77
2022-07-28T01:56:08.698Z,3.10
2022-07-28T01:58:38.777Z,4.47
2022-07-28T02:01:07.547Z,3.83
2022-07-28T02:03:37.786Z,3.70
2022-07-28T02:06:07.426Z,4.30
2022-07-28T02:08:40.375Z,4.40
2022-07-28T02:11:27.131Z,4.10
2022-07-28T02:13:56.485Z,4.70
2022-07-28T02:16:27.269Z,4.20
2022-07-28T02:18:59.676Z,4.17
2022-07-28T02:21:31.156Z,4.20
2022-07-28T02:24:00.295Z,4.10
2022-07-28T02:26:41.283Z,4.20
2022-07-28T02:29:33.533Z,3.57
2022-07-28T02:32:31.846Z,5.37
2022-07-28T02:35:18.311Z,4.90
2022-07-28T02:37:59.383Z,4.80
2022-07-28T02:40:36.173Z,4.63
2022-07-28T02:43:14.105Z,3.90
2022-07-28T02:45:51.728Z,4.23
2022-07-28T02:48:33.125Z,4.13
2022-07-28T02:51:03.387Z,4.00
2022-07-28T02:53:31.636Z,4.67
2022-07-28T02:56:01.411Z,3.87
2022-07-28T02:58:29.473Z,4.43
2022-07-28T03:00:58.101Z,3.83
2022-07-28T03:03:26.205Z,4.37
2022-07-28T03:05:53.996Z,4.27
2022-07-28T03:08:21.012Z,3.63
2022-07-28T03:10:47.914Z,3.80
2022-07-28T03:13:14.898Z,4.30
2022-07-28T03:15:42.617Z,3.80
2022-07-28T03:18:09.697Z,4.40
2022-07-28T03:20:36.584Z,3.23
2022-07-28T03:23:04.193Z,4.00
2022-07-28T03:25:48.384Z,3.97
2022-07-28T03:28:21.775Z,3.50
2022-07-28T03:31:00.219Z,3.40
2022-07-28T03:33:28.207Z,3.47
2022-07-28T03:36:02.304Z,4.03
2022-07-28T03:39:04.300Z,5.30
2022-07-28T03:41:34.292Z,3.60
2022-07-28T03:44:02.798Z,3.50
2022-07-28T03:46:31.668Z,4.77
2022-07-28T03:48:58.719Z,4.37
2022-07-28T03:51:28.221Z,4.00
2022-07-28T03:53:55.349Z,5.17
2022-07-28T03:56:22.465Z,4.50
2022-07-28T03:58:49.370Z,3.70
2022-07-28T04:01:16.995Z,4.97
2022-07-28T04:03:44.579Z,3.87
2022-07-28T04:06:15.723Z,4.40
2022-07-28T04:08:43.745Z,3.50
2022-07-28T04:11:11.014Z,3.47
2022-07-28T04:13:37.992Z,3.73
2022-07-28T04:16:07.184Z,3.73
2022-07-28T04:18:35.403Z,3.10
2022-07-28T04:21:03.034Z,3.57
2022-07-28T04:23:30.795Z,3.53
2022-07-28T04:25:58.010Z,4.03
2022-07-28T04:28:25.247Z,4.10
2022-07-28T04:30:52.233Z,3.60
2022-07-28T04:33:19.761Z,3.40
2022-07-28T04:35:47.215Z,3.53
2022-07-28T04:38:17.042Z,3.80
2022-07-28T04:40:43.925Z,3.80
2022-07-28T04:43:11.199Z,3.60
2022-07-28T04:45:38.584Z,3.87
2022-07-28T04:48:14.142Z,3.97
2022-07-28T04:50:45.495Z,3.50
2022-07-28T04:53:13.014Z,3.63
2022-07-28T04:55:39.918Z,5.00
2022-07-28T04:58:09.360Z,3.33
2022-07-28T05:00:36.625Z,3.63
2022-07-28T05:03:04.210Z,4.00
2022-07-28T05:05:31.650Z,4.50
2022-07-28T05:07:58.729Z,4.20
2022-07-28T05:10:26.903Z,4.57
2022-07-28T05:12:54.445Z,4.83
2022-07-28T05:15:21.385Z,5.50
2022-07-28T05:17:50.026Z,4.70
2022-07-28T05:20:17.303Z,3.60
2022-07-28T05:22:50.862Z,4.13
2022-07-28T05:25:22.655Z,5.10
2022-07-28T05:27:52.103Z,5.50
2022-07-28T05:30:20.295Z,4.33
2022-07-28T05:32:49.295Z,5.50
2022-07-28T05:35:16.981Z,4.60
2022-07-28T05:37:44.169Z,5.33
2022-07-28T05:40:15.353Z,5.50
2022-07-28T05:42:43.932Z,5.20
2022-07-28T05:45:15.978Z,4.97
2022-07-28T05:47:52.700Z,5.50
2022-07-28T05:50:25.961Z,5.03
2022-07-28T05:52:53.152Z,6.47
2022-07-28T05:55:20.379Z,6.07
2022-07-28T05:57:47.543Z,5.53
2022-07-28T06:00:23.336Z,6.50
2022-07-28T06:02:51.205Z,6.27
2022-07-28T06:05:22.295Z,6.67
2022-07-28T06:07:51.457Z,6.93
2022-07-28T06:10:24.961Z,6.60
2022-07-28T06:12:56.363Z,6.53
2022-07-28T06:15:27.800Z,6.50
2022-07-28T06:17:55.461Z,6.60
2022-07-28T06:20:24.973Z,6.83
2022-07-28T06:22:55.075Z,6.00
2022-07-28T06:25:26.240Z,6.93
2022-07-28T06:27:58.424Z,6.47
2022-07-28T06:30:26.639Z,6.60
2022-07-28T06:32:54.284Z,7.33
2022-07-28T06:35:22.204Z,6.80
2022-07-28T06:37:51.925Z,6.07
2022-07-28T06:40:20.545Z,6.57
2022-07-28T06:42:49.425Z,6.50
2022-07-28T06:45:20.860Z,6.73
2022-07-28T06:47:53.667Z,6.63
2022-07-28T06:50:25.197Z,6.63
2022-07-28T06:52:56.401Z,6.93
2022-07-28T06:55:23.700Z,7.37
2022-07-28T06:57:51.188Z,6.67
2022-07-28T07:00:18.745Z,7.27
2022-07-28T07:02:45.609Z,7.13
2022-07-28T07:05:13.924Z,6.13
2022-07-28T07:07:43.226Z,7.40
2022-07-28T07:10:11.430Z,6.63
2022-07-28T07:12:38.836Z,7.03
2022-07-28T07:15:07.761Z,6.50
2022-07-28T07:17:37.397Z,6.47
2022-07-28T07:20:07.652Z,7.23
2022-07-28T07:22:35.467Z,6.90
2022-07-28T07:25:18.096Z,7.30
2022-07-28T07:27:46.936Z,6.50
2022-07-28T07:30:16.573Z,6.63
2022-07-28T07:32:44.473Z,6.30
2022-07-28T07:35:12.345Z,6.10
2022-07-28T07:37:40.260Z,6.37
2022-07-28T07:40:09.188Z,6.63
2022-07-28T07:42:37.553Z,6.20
2022-07-28T07:45:05.569Z,6.23
2022-07-28T07:47:32.457Z,5.50
2022-07-28T07:50:03.902Z,6.00
2022-07-28T07:52:32.073Z,5.40
2022-07-28T07:54:58.978Z,6.67
2022-07-28T07:57:26.018Z,5.53
2022-07-28T07:59:52.920Z,5.10
2022-07-28T08:03:50.167Z,5.90
2022-07-28T08:06:17.265Z,5.63
2022-07-28T08:08:55.450Z,5.63
2022-07-28T08:11:22.774Z,5.70
2022-07-28T08:13:49.889Z,5.00
2022-07-28T08:16:17.098Z,5.40
2022-07-28T08:18:44.778Z,5.40
2022-07-28T08:21:12.947Z,5.83
2022-07-28T08:23:40.148Z,6.30
2022-07-28T08:26:07.846Z,6.00
2022-07-28T08:28:35.445Z,5.60
2022-07-28T08:31:02.544Z,5.90
2022-07-28T08:33:30.409Z,5.70
2022-07-28T08:35:57.309Z,4.93
2022-07-28T08:38:24.354Z,5.60
2022-07-28T08:40:57.294Z,5.23
2022-07-28T08:43:42.387Z,5.20
2022-07-28T08:46:10.074Z,5.50
2022-07-28T08:48:39.089Z,4.90
2022-07-28T08:51:12.369Z,4.53
2022-07-28T08:53:42.644Z,5.40
2022-07-28T08:56:18.719Z,5.70
2022-07-28T08:58:45.930Z,5.40
2022-07-28T09:01:13.166Z,5.27
2022-07-28T09:03:41.373Z,5.13
2022-07-28T09:06:08.734Z,5.70
2022-07-28T09:08:36.593Z,5.73
2022-07-28T09:11:03.743Z,4.97
2022-07-28T09:13:32.139Z,5.13
2022-07-28T09:16:00.044Z,4.77
2022-07-28T09:18:27.518Z,4.73
2022-07-28T09:20:54.560Z,5.23
2022-07-28T09:23:42.961Z,5.03
2022-07-28T09:26:12.649Z,4.80
2022-07-28T09:28:59.907Z,5.13
2022-07-28T09:31:30.317Z,5.20
2022-07-28T09:34:04.655Z,4.50
2022-07-28T09:36:41.255Z,4.83
2022-07-28T09:39:09.034Z,4.53
2022-07-28T09:41:55.199Z,4.60
2022-07-28T09:44:26.993Z,5.17
2022-07-28T09:46:56.589Z,4.53
2022-07-28T09:49:43.178Z,4.97
2022-07-28T09:52:10.423Z,4.30
2022-07-28T09:54:40.683Z,5.23
2022-07-28T09:57:11.574Z,4.77
2022-07-28T09:59:45.456Z,4.70
2022-07-28T10:02:26.995Z,4.80
2022-07-28T10:04:55.541Z,4.80
2022-07-28T10:07:23.080Z,5.13
2022-07-28T10:09:58.992Z,4.80
2022-07-28T10:12:30.927Z,4.20
2022-07-28T10:15:35.092Z,5.23
2022-07-28T10:18:05.239Z,4.23
2022-07-28T10:20:34.086Z,5.37
2022-07-28T10:23:10.723Z,4.83
2022-07-28T10:25:40.646Z,4.13
2022-07-28T10:28:11.740Z,4.30
2022-07-28T10:30:41.472Z,4.67
2022-07-28T10:33:16.202Z,4.70
2022-07-28T10:35:55.214Z,4.40
2022-07-28T10:38:27.903Z,4.23
2022-07-28T10:41:01.404Z,4.97
2022-07-28T10:43:31.760Z,3.80
2022-07-28T10:46:06.829Z,3.80
2022-07-28T10:48:38.657Z,4.20
2022-07-28T10:51:06.856Z,4.13
2022-07-28T10:53:56.273Z,3.83
2022-07-28T10:56:33.984Z,4.10
2022-07-28T10:59:58.290Z,4.23
2022-07-28T11:03:00.456Z,4.20
2022-07-28T11:05:37.240Z,3.73
2022-07-28T11:08:28.540Z,3.57
2022-07-28T11:11:00.906Z,4.00
2022-07-28T11:13:36.926Z,3.63
2022-07-28T11:16:13.654Z,3.80
2022-07-28T11:19:02.020Z,3.60
2022-07-28T11:21:31.928Z,3.47
2022-07-28T11:24:08.090Z,4.10
2022-07-28T11:26:36.641Z,4.87
2022-07-28T11:29:03.840Z,3.50
2022-07-28T11:31:46.184Z,3.53
2022-07-28T11:34:18.377Z,4.77
2022-07-28T11:37:03.667Z,3.47
2022-07-28T11:39:42.721Z,3.27
2022-07-28T11:42:35.688Z,3.57
2022-07-28T11:45:35.908Z,3.20
2022-07-28T11:48:23.417Z,3.47
2022-07-28T11:51:05.717Z,3.80
2022-07-28T11:53:45.446Z,3.10
2022-07-28T11:56:28.893Z,2.70
2022-07-28T11:59:11.337Z,3.00
2022-07-28T12:01:50.801Z,2.80
2022-07-28T12:04:18.791Z,3.23
2022-07-28T12:06:51.255Z,3.20
2022-07-28T12:09:23.484Z,3.60
2022-07-28T12:11:55.624Z,3.33
2022-07-28T12:14:22.834Z,3.33
2022-07-28T12:16:53.453Z,3.40
2022-07-28T12:19:22.272Z,2.87
2022-07-28T12:21:55.672Z,2.80
2022-07-28T12:24:44.853Z,3.87
2022-07-28T12:27:15.395Z,2.80
2022-07-28T12:29:43.906Z,2.87
2022-07-28T12:32:15.916Z,3.03
2022-07-28T12:34:44.918Z,3.53
2022-07-28T12:37:14.438Z,3.50
2022-07-28T12:39:43.140Z,3.33
2022-07-28T12:42:12.906Z,3.20
2022-07-28T12:44:47.445Z,2.67
2022-07-28T12:47:26.789Z,2.83
2022-07-28T12:50:17.772Z,3.13
2022-07-28T12:53:07.855Z,3.10
2022-07-28T12:55:36.331Z,3.00
2022-07-28T12:58:05.767Z,2.80
2022-07-28T13:00:36.197Z,3.30
2022-07-28T13:03:29.894Z,3.57
2022-07-28T13:06:04.123Z,3.13
2022-07-28T13:08:47.647Z,3.00
2022-07-28T13:11:42.433Z,3.40
2022-07-28T13:14:04.135Z,3.33
2022-07-28T13:16:31.222Z,3.50
2022-07-28T13:19:04.310Z,2.67
2022-07-28T13:21:56.593Z,3.00
2022-07-28T13:24:29.664Z,2.93
2022-07-28T13:26:59.069Z,3.20
2022-07-28T13:29:26.083Z,3.17
2022-07-28T13:31:54.562Z,3.27
2022-07-28T13:34:22.032Z,2.80
2022-07-28T13:36:49.080Z,3.17
2022-07-28T13:39:16.112Z,3.33
2022-07-28T13:41:57.866Z,3.00
2022-07-28T13:44:31.552Z,2.80
2022-07-28T13:47:01.413Z,2.80
2022-07-28T13:49:32.203Z,2.90
2022-07-28T13:52:01.433Z,3.00
2022-07-28T13:54:28.667Z,3.07
2022-07-28T13:57:12.535Z,3.47
2022-07-28T13:59:41.968Z,3.10
2022-07-28T14:02:15.791Z,3.20
2022-07-28T14:04:46.097Z,2.33
2022-07-28T14:07:20.906Z,3.17
2022-07-28T14:09:50.671Z,3.47
2022-07-28T14:12:18.493Z,2.97
2022-07-28T14:14:48.301Z,2.73
2022-07-28T14:20:11.326Z,3.30
2022-07-28T14:22:38.269Z,3.67
2022-07-28T14:25:06.201Z,3.10
2022-07-28T14:27:34.170Z,3.07
2022-07-28T14:30:03.803Z,2.90
2022-07-28T14:32:32.775Z,2.77
2022-07-28T14:34:59.969Z,2.97
2022-07-28T14:37:36.230Z,3.07
2022-07-28T14:40:17.355Z,2.80
2022-07-28T14:42:44.606Z,2.60
2022-07-28T14:45:12.437Z,3.57
2022-07-28T14:47:44.286Z,3.27
2022-07-28T14:50:12.968Z,3.07
2022-07-28T14:52:40.435Z,3.07
2022-07-28T14:55:08.404Z,2.50
2022-07-28T14:57:50.389Z,3.30
2022-07-28T15:00:25.046Z,2.70
2022-07-28T15:02:53.019Z,3.57
2022-07-28T15:05:21.826Z,2.80
2022-07-28T15:07:51.824Z,3.00
2022-07-28T15:10:20.678Z,2.60
2022-07-28T15:12:49.781Z,3.00
2022-07-28T15:15:16.842Z,3.17
2022-07-28T15:17:43.745Z,3.10
2022-07-28T15:20:11.585Z,2.57
2022-07-28T15:22:38.587Z,2.97
2022-07-28T15:25:06.370Z,3.27
2022-07-28T15:27:34.024Z,3.07
2022-07-28T15:30:02.842Z,3.17
2022-07-28T15:32:31.695Z,2.80
2022-07-28T15:34:59.759Z,2.87
2022-07-28T15:37:27.844Z,2.87
2022-07-28T15:39:54.822Z,3.20
2022-07-28T15:42:23.675Z,3.40
2022-07-28T15:44:53.441Z,2.57
2022-07-28T15:47:22.210Z,2.70
2022-07-28T15:49:49.167Z,2.47
2022-07-28T15:52:16.083Z,2.83
2022-07-28T15:54:43.108Z,2.70
2022-07-28T15:57:10.048Z,2.60
2022-07-28T15:59:49.351Z,2.80
2022-07-28T16:02:19.065Z,2.97
2022-07-28T16:04:47.168Z,2.80
2022-07-28T16:07:23.253Z,2.63
2022-07-28T16:09:54.473Z,2.37
2022-07-28T16:12:27.626Z,2.80
2022-07-28T16:14:55.102Z,2.20
2022-07-28T16:17:23.569Z,2.50
2022-07-28T16:19:51.637Z,2.97
2022-07-28T16:22:21.617Z,3.07
2022-07-28T16:24:50.552Z,2.27
2022-07-28T16:27:18.405Z,2.90
2022-07-28T16:29:45.628Z,2.77
2022-07-28T16:32:12.844Z,2.27
2022-07-28T16:34:39.874Z,2.70
2022-07-28T16:37:06.976Z,2.97
2022-07-28T16:39:34.783Z,2.30
2022-07-28T16:42:02.881Z,2.20
2022-07-28T16:44:30.675Z,2.60
2022-07-28T16:46:58.815Z,2.63
2022-07-28T16:49:26.033Z,2.60
2022-07-28T16:51:54.435Z,2.60
2022-07-28T16:54:21.679Z,2.77
2022-07-28T16:56:49.379Z,2.60
2022-07-28T16:59:16.368Z,2.37
2022-07-28T17:01:46.289Z,3.00
2022-07-28T17:04:17.206Z,2.30
2022-07-28T17:06:46.315Z,2.70
2022-07-28T17:09:16.302Z,2.47
2022-07-28T17:11:43.750Z,2.40
2022-07-28T17:14:12.613Z,2.67
2022-07-28T17:16:39.885Z,2.40
2022-07-28T17:19:07.030Z,2.20
2022-07-28T17:21:35.708Z,2.73
2022-07-28T17:24:03.703Z,2.20
2022-07-28T17:29:19.020Z,2.33
2022-07-28T17:31:46.137Z,3.00
2022-07-28T17:34:13.961Z,2.63
2022-07-28T17:36:41.272Z,2.97
2022-07-28T17:39:12.975Z,2.67
2022-07-28T17:41:40.037Z,2.40
2022-07-28T17:44:07.065Z,2.20
2022-07-28T17:46:35.012Z,2.50
2022-07-28T17:49:02.919Z,1.93
2022-07-28T17:51:30.674Z,2.30
2022-07-28T17:53:57.846Z,2.50
2022-07-28T17:56:25.416Z,2.10
2022-07-28T17:58:53.360Z,2.30
2022-07-28T18:01:20.627Z,2.00
2022-07-28T18:03:57.907Z,2.20
2022-07-28T18:06:35.615Z,2.23
2022-07-28T18:09:09.769Z,2.20
2022-07-28T18:11:56.862Z,2.63
2022-07-28T18:14:30.648Z,2.70
2022-07-28T18:16:58.803Z,2.30
2022-07-28T18:19:27.908Z,2.27
2022-07-28T18:21:56.244Z,2.40
2022-07-28T18:24:23.683Z,2.60
2022-07-28T18:26:53.535Z,2.87
2022-07-28T18:29:21.916Z,2.60
2022-07-28T18:31:51.564Z,2.53
2022-07-28T18:34:23.213Z,2.37
2022-07-28T18:36:53.373Z,2.30
2022-07-28T18:39:20.482Z,2.20
2022-07-28T18:41:48.040Z,2.60
2022-07-28T18:44:17.841Z,2.47
2022-07-28T18:46:45.676Z,2.50
2022-07-28T18:49:15.147Z,2.47
2022-07-28T18:51:44.893Z,3.13
2022-07-28T18:54:21.495Z,2.37
2022-07-28T18:56:57.798Z,2.20
2022-07-28T18:59:25.301Z,2.47
2022-07-28T19:01:52.380Z,2.10
2022-07-28T19:04:20.098Z,2.70
2022-07-28T19:06:47.063Z,2.73
2022-07-28T19:09:18.704Z,2.67
2022-07-28T19:11:46.677Z,2.60
2022-07-28T19:14:16.104Z,2.50
2022-07-28T19:16:44.341Z,2.40
2022-07-28T19:19:15.982Z,2.63
2022-07-28T19:21:43.730Z,2.83
2022-07-28T19:24:15.853Z,2.70
2022-07-28T19:26:46.231Z,2.57
2022-07-28T19:29:13.633Z,2.10
2022-07-28T19:31:41.317Z,2.80
2022-07-28T19:34:10.111Z,2.50
2022-07-28T19:36:40.275Z,2.53
2022-07-28T19:39:08.189Z,2.40
2022-07-28T19:41:35.147Z,2.80
2022-07-28T19:44:02.259Z,3.80
2022-07-28T19:46:29.661Z,2.87
2022-07-28T19:48:56.837Z,3.23
2022-07-28T19:51:24.876Z,3.10
2022-07-28T19:53:51.899Z,3.80
2022-07-28T19:56:19.588Z,3.20
2022-07-28T19:58:46.692Z,3.13
2022-07-28T20:01:14.377Z,3.20
2022-07-28T20:04:00.843Z,3.20
2022-07-28T20:06:29.079Z,2.37
2022-07-28T20:08:56.936Z,2.50
2022-07-28T20:11:24.028Z,2.93
2022-07-28T20:13:50.996Z,2.83
2022-07-28T20:16:18.275Z,2.50
2022-07-28T20:18:45.224Z,3.20
2022-07-28T20:21:12.187Z,2.60
2022-07-28T20:23:40.756Z,2.93
2022-07-28T20:26:09.954Z,3.27
2022-07-28T20:28:37.830Z,2.80
2022-07-28T20:31:07.126Z,3.57
2022-07-28T20:33:34.118Z,2.60
2022-07-28T20:36:01.056Z,3.13
2022-07-28T20:38:28.092Z,2.77
2022-07-28T20:40:55.112Z,3.20
2022-07-28T20:43:21.988Z,3.10
2022-07-28T20:45:48.925Z,3.33
2022-07-28T20:48:16.036Z,3.23
2022-07-28T20:50:43.027Z,3.03
2022-07-28T20:53:10.575Z,3.40
2022-07-28T20:55:37.651Z,3.40
2022-07-28T20:58:06.085Z,3.10
2022-07-28T21:00:33.280Z,2.90
2022-07-28T21:03:00.330Z,2.80
2022-07-28T21:05:35.542Z,2.83
2022-07-28T21:08:05.956Z,2.73
2022-07-28T21:10:36.519Z,3.20
2022-07-28T21:13:03.879Z,2.50
2022-07-28T21:15:31.180Z,2.60
2022-07-28T21:17:58.921Z,2.87
2022-07-28T21:20:26.478Z,3.43
2022-07-28T21:22:53.513Z,3.10
2022-07-28T21:25:21.354Z,3.30
2022-07-28T21:28:06.970Z,2.87
2022-07-28T21:30:34.135Z,3.00
2022-07-28T21:33:01.204Z,3.57
2022-07-28T21:35:31.464Z,3.10
2022-07-28T21:37:58.401Z,3.10
2022-07-28T21:40:26.648Z,3.57
2022-07-28T21:42:53.618Z,3.23
2022-07-28T21:45:20.601Z,2.63
2022-07-28T21:47:47.936Z,3.03
2022-07-28T21:50:15.469Z,3.00
2022-07-28T21:52:42.488Z,3.00
2022-07-28T21:55:10.565Z,2.57
2022-07-28T21:57:37.675Z,3.10
2022-07-28T22:00:11.591Z,3.53
2022-07-28T22:02:39.015Z,3.03
2022-07-28T22:05:08.726Z,3.23
2022-07-28T22:07:35.737Z,2.90
2022-07-28T22:10:02.672Z,3.40
2022-07-28T22:12:29.618Z,2.93
2022-07-28T22:14:56.619Z,3.60
2022-07-28T22:17:23.567Z,2.87
2022-07-28T22:19:50.442Z,2.67
2022-07-28T22:22:18.331Z,3.27
2022-07-28T22:24:48.359Z,3.00
2022-07-28T22:27:15.305Z,2.80
2022-07-28T22:29:49.980Z,2.90
2022-07-28T22:32:26.690Z,2.60
2022-07-28T22:34:57.881Z,2.97
2022-07-28T22:37:24.991Z,3.40
2022-07-28T22:39:51.974Z,2.70
2022-07-28T22:42:18.897Z,2.67
2022-07-28T22:44:45.825Z,2.70
2022-07-28T22:47:12.735Z,3.10
2022-07-28T22:49:39.625Z,3.20
2022-07-28T22:52:06.583Z,2.60
2022-07-28T22:54:39.132Z,2.90
2022-07-28T22:57:06.886Z,3.13
2022-07-28T22:59:38.593Z,3.17
2022-07-28T23:02:07.547Z,2.60
2022-07-28T23:04:34.506Z,3.20
2022-07-28T23:07:01.593Z,2.83
2022-07-28T23:09:28.643Z,2.33
2022-07-28T23:11:56.244Z,3.50
2022-07-28T23:14:23.512Z,3.00
2022-07-28T23:16:50.496Z,4.10
2022-07-28T23:19:17.548Z,3.00
2022-07-28T23:21:44.453Z,3.50
2022-07-28T23:24:11.438Z,3.10
2022-07-28T23:26:38.370Z,2.57
2022-07-28T23:29:05.320Z,2.60
2022-07-28T23:31:32.318Z,3.17
2022-07-28T23:33:59.484Z,3.00
2022-07-28T23:36:27.881Z,2.70
2022-07-28T23:38:59.342Z,2.80
2022-07-28T23:41:28.571Z,3.13
2022-07-28T23:43:55.933Z,2.80
2022-07-28T23:46:23.181Z,2.80
2022-07-28T23:48:50.845Z,2.33
2022-07-28T23:51:18.066Z,2.73
2022-07-28T23:53:45.004Z,3.20
2022-07-28T23:56:14.005Z,3.63
2022-07-28T23:58:41.611Z,3.00
